sensor_id;sensor_type;location;lat;lon;timestamp;P1;durP1;ratioP1;P2;durP2;ratioP2
6378;SDS011;3222;48.858;10.128;2023-04-24T00:01:15;9.40;;;2.20;;
6378;SDS011;3222;48.858;10.128;2023-04-24T00:03:42;3.43;;;1.43;;
6378;SDS011;3222;48.858;10.128;2023-04-24T00:06:08;11.67;;;2.37;;
6378;SDS011;3222;48.858;10.128;2023-04-24T00:08:34;5.07;;;1.37;;
6378;SDS011;3222;48.858;10.128;2023-04-24T00:11:00;6.47;;;1.40;;
6378;SDS011;3222;48.858;10.128;2023-04-24T00:13:26;8.80;;;1.67;;
6378;SDS011;3222;48.858;10.128;2023-04-24T00:15:53;10.47;;;2.93;;
6378;SDS011;3222;48.858;10.128;2023-04-24T00:18:20;11.57;;;2.57;;
6378;SDS011;3222;48.858;10.128;2023-04-24T00:20:45;10.37;;;2.03;;
6378;SDS011;3222;48.858;10.128;2023-04-24T00:23:11;5.50;;;2.50;;
6378;SDS011;3222;48.858;10.128;2023-04-24T00:25:37;4.80;;;1.53;;
6378;SDS011;3222;48.858;10.128;2023-04-24T00:28:03;7.80;;;1.80;;
6378;SDS011;3222;48.858;10.128;2023-04-24T00:30:29;2.07;;;1.13;;
6378;SDS011;3222;48.858;10.128;2023-04-24T00:32:55;12.90;;;1.50;;
6378;SDS011;3222;48.858;10.128;2023-04-24T00:35:22;5.53;;;1.50;;
6378;SDS011;3222;48.858;10.128;2023-04-24T00:37:48;4.77;;;1.50;;
6378;SDS011;3222;48.858;10.128;2023-04-24T00:40:14;2.77;;;1.30;;
6378;SDS011;3222;48.858;10.128;2023-04-24T00:42:40;10.30;;;1.37;;
6378;SDS011;3222;48.858;10.128;2023-04-24T00:45:06;8.23;;;1.43;;
6378;SDS011;3222;48.858;10.128;2023-04-24T00:47:32;6.33;;;1.20;;
6378;SDS011;3222;48.858;10.128;2023-04-24T00:49:58;8.40;;;1.30;;
6378;SDS011;3222;48.858;10.128;2023-04-24T00:52:26;17.23;;;1.87;;
6378;SDS011;3222;48.858;10.128;2023-04-24T00:54:51;7.40;;;1.30;;
6378;SDS011;3222;48.858;10.128;2023-04-24T00:57:17;11.43;;;1.23;;
6378;SDS011;3222;48.858;10.128;2023-04-24T00:59:43;3.70;;;1.70;;
6378;SDS011;3222;48.858;10.128;2023-04-24T01:02:10;3.13;;;1.30;;
6378;SDS011;3222;48.858;10.128;2023-04-24T01:04:36;3.70;;;1.17;;
6378;SDS011;3222;48.858;10.128;2023-04-24T01:07:03;7.33;;;2.57;;
6378;SDS011;3222;48.858;10.128;2023-04-24T01:09:35;5.40;;;1.30;;
6378;SDS011;3222;48.858;10.128;2023-04-24T01:12:02;2.03;;;1.30;;
6378;SDS011;3222;48.858;10.128;2023-04-24T01:14:28;4.37;;;1.40;;
6378;SDS011;3222;48.858;10.128;2023-04-24T01:16:54;2.40;;;1.30;;
6378;SDS011;3222;48.858;10.128;2023-04-24T01:19:20;5.80;;;2.23;;
6378;SDS011;3222;48.858;10.128;2023-04-24T01:21:45;5.63;;;1.80;;
6378;SDS011;3222;48.858;10.128;2023-04-24T01:24:16;4.43;;;1.67;;
6378;SDS011;3222;48.858;10.128;2023-04-24T01:26:44;7.03;;;2.17;;
6378;SDS011;3222;48.858;10.128;2023-04-24T01:29:10;10.20;;;1.90;;
6378;SDS011;3222;48.858;10.128;2023-04-24T01:31:36;6.60;;;1.50;;
6378;SDS011;3222;48.858;10.128;2023-04-24T01:34:03;8.87;;;1.90;;
6378;SDS011;3222;48.858;10.128;2023-04-24T01:36:29;4.13;;;1.77;;
6378;SDS011;3222;48.858;10.128;2023-04-24T01:38:57;8.07;;;2.37;;
6378;SDS011;3222;48.858;10.128;2023-04-24T01:41:24;6.07;;;2.27;;
6378;SDS011;3222;48.858;10.128;2023-04-24T01:43:50;5.23;;;2.10;;
6378;SDS011;3222;48.858;10.128;2023-04-24T01:46:18;4.90;;;1.70;;
6378;SDS011;3222;48.858;10.128;2023-04-24T01:48:45;9.63;;;2.20;;
6378;SDS011;3222;48.858;10.128;2023-04-24T01:51:11;13.67;;;2.67;;
6378;SDS011;3222;48.858;10.128;2023-04-24T01:53:36;3.50;;;1.63;;
6378;SDS011;3222;48.858;10.128;2023-04-24T01:56:02;3.40;;;1.70;;
6378;SDS011;3222;48.858;10.128;2023-04-24T01:58:28;14.27;;;2.83;;
6378;SDS011;3222;48.858;10.128;2023-04-24T02:00:57;3.93;;;1.37;;
6378;SDS011;3222;48.858;10.128;2023-04-24T02:03:26;8.50;;;1.30;;
6378;SDS011;3222;48.858;10.128;2023-04-24T02:05:52;4.73;;;1.40;;
6378;SDS011;3222;48.858;10.128;2023-04-24T02:08:17;7.17;;;1.30;;
6378;SDS011;3222;48.858;10.128;2023-04-24T02:10:43;9.47;;;1.40;;
6378;SDS011;3222;48.858;10.128;2023-04-24T02:13:09;8.50;;;1.20;;
6378;SDS011;3222;48.858;10.128;2023-04-24T02:15:35;11.60;;;1.60;;
6378;SDS011;3222;48.858;10.128;2023-04-24T02:18:02;7.17;;;1.00;;
6378;SDS011;3222;48.858;10.128;2023-04-24T02:20:30;6.40;;;1.20;;
6378;SDS011;3222;48.858;10.128;2023-04-24T02:22:58;6.40;;;1.30;;
6378;SDS011;3222;48.858;10.128;2023-04-24T02:25:24;7.33;;;1.40;;
6378;SDS011;3222;48.858;10.128;2023-04-24T02:27:52;11.67;;;1.73;;
6378;SDS011;3222;48.858;10.128;2023-04-24T02:30:18;6.80;;;1.57;;
6378;SDS011;3222;48.858;10.128;2023-04-24T02:32:44;10.03;;;1.57;;
6378;SDS011;3222;48.858;10.128;2023-04-24T02:35:10;6.93;;;1.07;;
6378;SDS011;3222;48.858;10.128;2023-04-24T02:37:35;2.93;;;1.10;;
6378;SDS011;3222;48.858;10.128;2023-04-24T02:40:01;1.73;;;1.07;;
6378;SDS011;3222;48.858;10.128;2023-04-24T02:42:27;1.73;;;1.17;;
6378;SDS011;3222;48.858;10.128;2023-04-24T02:44:53;1.43;;;1.00;;
6378;SDS011;3222;48.858;10.128;2023-04-24T02:47:18;4.40;;;1.33;;
6378;SDS011;3222;48.858;10.128;2023-04-24T02:49:45;4.60;;;1.27;;
6378;SDS011;3222;48.858;10.128;2023-04-24T02:52:10;8.43;;;1.63;;
6378;SDS011;3222;48.858;10.128;2023-04-24T02:54:36;3.47;;;1.10;;
6378;SDS011;3222;48.858;10.128;2023-04-24T02:57:01;2.43;;;1.00;;
6378;SDS011;3222;48.858;10.128;2023-04-24T02:59:27;2.97;;;1.40;;
6378;SDS011;3222;48.858;10.128;2023-04-24T03:01:54;2.27;;;0.97;;
6378;SDS011;3222;48.858;10.128;2023-04-24T03:04:19;1.30;;;1.20;;
6378;SDS011;3222;48.858;10.128;2023-04-24T03:06:47;1.00;;;1.00;;
6378;SDS011;3222;48.858;10.128;2023-04-24T03:09:12;3.30;;;1.30;;
6378;SDS011;3222;48.858;10.128;2023-04-24T03:11:38;2.40;;;1.30;;
6378;SDS011;3222;48.858;10.128;2023-04-24T03:14:07;2.77;;;1.20;;
6378;SDS011;3222;48.858;10.128;2023-04-24T03:16:32;2.23;;;1.10;;
6378;SDS011;3222;48.858;10.128;2023-04-24T03:18:58;2.93;;;1.20;;
6378;SDS011;3222;48.858;10.128;2023-04-24T03:21:26;1.63;;;1.00;;
6378;SDS011;3222;48.858;10.128;2023-04-24T03:23:52;1.43;;;1.33;;
6378;SDS011;3222;48.858;10.128;2023-04-24T03:26:18;1.10;;;1.10;;
6378;SDS011;3222;48.858;10.128;2023-04-24T03:28:58;2.17;;;1.20;;
6378;SDS011;3222;48.858;10.128;2023-04-24T03:31:23;2.77;;;1.30;;
6378;SDS011;3222;48.858;10.128;2023-04-24T03:33:49;2.80;;;1.70;;
6378;SDS011;3222;48.858;10.128;2023-04-24T03:36:16;2.87;;;1.40;;
6378;SDS011;3222;48.858;10.128;2023-04-24T03:38:42;1.77;;;1.53;;
6378;SDS011;3222;48.858;10.128;2023-04-24T03:41:26;2.77;;;1.40;;
6378;SDS011;3222;48.858;10.128;2023-04-24T03:44:02;2.30;;;1.30;;
6378;SDS011;3222;48.858;10.128;2023-04-24T03:46:29;3.00;;;1.40;;
6378;SDS011;3222;48.858;10.128;2023-04-24T03:48:58;3.13;;;1.50;;
6378;SDS011;3222;48.858;10.128;2023-04-24T03:51:28;3.77;;;1.40;;
6378;SDS011;3222;48.858;10.128;2023-04-24T03:54:00;4.33;;;1.30;;
6378;SDS011;3222;48.858;10.128;2023-04-24T03:56:28;1.30;;;1.20;;
6378;SDS011;3222;48.858;10.128;2023-04-24T03:58:54;4.00;;;1.43;;
6378;SDS011;3222;48.858;10.128;2023-04-24T04:01:20;1.20;;;1.10;;
6378;SDS011;3222;48.858;10.128;2023-04-24T04:03:52;1.40;;;1.30;;
6378;SDS011;3222;48.858;10.128;2023-04-24T04:06:21;1.10;;;1.03;;
6378;SDS011;3222;48.858;10.128;2023-04-24T04:08:48;2.70;;;1.30;;
6378;SDS011;3222;48.858;10.128;2023-04-24T04:11:14;1.17;;;1.17;;
6378;SDS011;3222;48.858;10.128;2023-04-24T04:13:39;1.80;;;1.40;;
6378;SDS011;3222;48.858;10.128;2023-04-24T04:16:05;3.80;;;1.53;;
6378;SDS011;3222;48.858;10.128;2023-04-24T04:18:31;2.37;;;1.40;;
6378;SDS011;3222;48.858;10.128;2023-04-24T04:20:56;1.93;;;1.10;;
6378;SDS011;3222;48.858;10.128;2023-04-24T04:23:22;1.30;;;1.17;;
6378;SDS011;3222;48.858;10.128;2023-04-24T04:26:08;2.70;;;2.20;;
6378;SDS011;3222;48.858;10.128;2023-04-24T04:28:49;5.33;;;1.60;;
6378;SDS011;3222;48.858;10.128;2023-04-24T04:31:15;6.37;;;2.87;;
6378;SDS011;3222;48.858;10.128;2023-04-24T04:33:40;6.77;;;2.70;;
6378;SDS011;3222;48.858;10.128;2023-04-24T04:36:08;7.30;;;2.30;;
6378;SDS011;3222;48.858;10.128;2023-04-24T04:38:37;4.73;;;2.13;;
6378;SDS011;3222;48.858;10.128;2023-04-24T04:41:21;2.20;;;1.60;;
6378;SDS011;3222;48.858;10.128;2023-04-24T04:43:46;3.33;;;1.60;;
6378;SDS011;3222;48.858;10.128;2023-04-24T04:46:13;2.33;;;1.87;;
6378;SDS011;3222;48.858;10.128;2023-04-24T04:49:08;2.43;;;1.37;;
6378;SDS011;3222;48.858;10.128;2023-04-24T04:51:34;2.03;;;1.53;;
6378;SDS011;3222;48.858;10.128;2023-04-24T04:54:00;1.17;;;1.13;;
6378;SDS011;3222;48.858;10.128;2023-04-24T04:56:26;1.40;;;1.30;;
6378;SDS011;3222;48.858;10.128;2023-04-24T04:58:51;1.53;;;1.23;;
6378;SDS011;3222;48.858;10.128;2023-04-24T05:01:18;1.30;;;1.20;;
6378;SDS011;3222;48.858;10.128;2023-04-24T05:03:46;1.13;;;1.13;;
6378;SDS011;3222;48.858;10.128;2023-04-24T05:06:14;1.23;;;1.23;;
6378;SDS011;3222;48.858;10.128;2023-04-24T05:08:40;2.37;;;1.50;;
6378;SDS011;3222;48.858;10.128;2023-04-24T05:11:09;2.63;;;1.20;;
6378;SDS011;3222;48.858;10.128;2023-04-24T05:13:37;1.30;;;1.20;;
6378;SDS011;3222;48.858;10.128;2023-04-24T05:16:06;1.20;;;1.10;;
6378;SDS011;3222;48.858;10.128;2023-04-24T05:18:32;2.73;;;1.30;;
6378;SDS011;3222;48.858;10.128;2023-04-24T05:20:59;3.33;;;1.80;;
6378;SDS011;3222;48.858;10.128;2023-04-24T05:23:25;1.90;;;1.63;;
6378;SDS011;3222;48.858;10.128;2023-04-24T05:25:52;1.30;;;1.30;;
6378;SDS011;3222;48.858;10.128;2023-04-24T05:28:19;1.60;;;1.40;;
6378;SDS011;3222;48.858;10.128;2023-04-24T05:30:54;2.03;;;1.30;;
6378;SDS011;3222;48.858;10.128;2023-04-24T05:33:24;6.00;;;1.57;;
6378;SDS011;3222;48.858;10.128;2023-04-24T05:35:50;1.93;;;1.80;;
6378;SDS011;3222;48.858;10.128;2023-04-24T05:38:16;2.93;;;1.93;;
6378;SDS011;3222;48.858;10.128;2023-04-24T05:40:45;5.47;;;2.40;;
6378;SDS011;3222;48.858;10.128;2023-04-24T05:43:11;5.10;;;2.93;;
6378;SDS011;3222;48.858;10.128;2023-04-24T05:45:37;2.80;;;1.93;;
6378;SDS011;3222;48.858;10.128;2023-04-24T05:48:03;2.23;;;1.50;;
6378;SDS011;3222;48.858;10.128;2023-04-24T05:50:29;4.90;;;1.57;;
6378;SDS011;3222;48.858;10.128;2023-04-24T05:52:55;3.13;;;1.30;;
6378;SDS011;3222;48.858;10.128;2023-04-24T05:55:27;2.90;;;1.33;;
6378;SDS011;3222;48.858;10.128;2023-04-24T05:57:53;2.13;;;1.57;;
6378;SDS011;3222;48.858;10.128;2023-04-24T06:00:19;2.87;;;2.10;;
6378;SDS011;3222;48.858;10.128;2023-04-24T06:02:53;4.33;;;2.50;;
6378;SDS011;3222;48.858;10.128;2023-04-24T06:05:19;2.67;;;2.30;;
6378;SDS011;3222;48.858;10.128;2023-04-24T06:07:45;3.00;;;1.90;;
6378;SDS011;3222;48.858;10.128;2023-04-24T06:10:11;2.17;;;1.70;;
6378;SDS011;3222;48.858;10.128;2023-04-24T06:12:40;2.57;;;2.20;;
6378;SDS011;3222;48.858;10.128;2023-04-24T06:15:12;4.33;;;2.30;;
6378;SDS011;3222;48.858;10.128;2023-04-24T06:18:04;3.83;;;1.93;;
6378;SDS011;3222;48.858;10.128;2023-04-24T06:20:29;2.60;;;1.70;;
6378;SDS011;3222;48.858;10.128;2023-04-24T06:22:55;2.07;;;1.73;;
6378;SDS011;3222;48.858;10.128;2023-04-24T06:25:21;4.30;;;1.93;;
6378;SDS011;3222;48.858;10.128;2023-04-24T06:27:46;1.83;;;1.73;;
6378;SDS011;3222;48.858;10.128;2023-04-24T06:30:12;1.80;;;1.70;;
6378;SDS011;3222;48.858;10.128;2023-04-24T06:32:39;1.77;;;1.60;;
6378;SDS011;3222;48.858;10.128;2023-04-24T06:35:05;2.77;;;1.83;;
6378;SDS011;3222;48.858;10.128;2023-04-24T06:37:33;2.30;;;1.57;;
6378;SDS011;3222;48.858;10.128;2023-04-24T06:39:58;1.80;;;1.57;;
6378;SDS011;3222;48.858;10.128;2023-04-24T06:42:24;1.80;;;1.63;;
6378;SDS011;3222;48.858;10.128;2023-04-24T06:44:50;1.87;;;1.60;;
6378;SDS011;3222;48.858;10.128;2023-04-24T06:47:15;2.07;;;1.87;;
6378;SDS011;3222;48.858;10.128;2023-04-24T06:49:41;2.37;;;1.47;;
6378;SDS011;3222;48.858;10.128;2023-04-24T06:52:07;1.63;;;1.60;;
6378;SDS011;3222;48.858;10.128;2023-04-24T06:54:33;1.50;;;1.50;;
6378;SDS011;3222;48.858;10.128;2023-04-24T06:56:59;1.60;;;1.50;;
6378;SDS011;3222;48.858;10.128;2023-04-24T06:59:28;2.00;;;1.90;;
6378;SDS011;3222;48.858;10.128;2023-04-24T07:01:55;1.87;;;1.77;;
6378;SDS011;3222;48.858;10.128;2023-04-24T07:04:21;1.80;;;1.70;;
6378;SDS011;3222;48.858;10.128;2023-04-24T07:06:47;1.70;;;1.60;;
6378;SDS011;3222;48.858;10.128;2023-04-24T07:09:14;5.03;;;1.90;;
6378;SDS011;3222;48.858;10.128;2023-04-24T07:11:41;2.73;;;2.00;;
6378;SDS011;3222;48.858;10.128;2023-04-24T07:14:07;2.27;;;1.93;;
6378;SDS011;3222;48.858;10.128;2023-04-24T07:16:33;2.83;;;2.30;;
6378;SDS011;3222;48.858;10.128;2023-04-24T07:18:59;3.13;;;1.87;;
6378;SDS011;3222;48.858;10.128;2023-04-24T07:21:25;2.07;;;1.97;;
6378;SDS011;3222;48.858;10.128;2023-04-24T07:23:52;2.17;;;1.97;;
6378;SDS011;3222;48.858;10.128;2023-04-24T07:26:17;2.40;;;2.20;;
6378;SDS011;3222;48.858;10.128;2023-04-24T07:28:43;1.90;;;1.70;;
6378;SDS011;3222;48.858;10.128;2023-04-24T07:31:10;2.80;;;1.97;;
6378;SDS011;3222;48.858;10.128;2023-04-24T07:33:36;2.00;;;1.90;;
6378;SDS011;3222;48.858;10.128;2023-04-24T07:36:02;3.90;;;1.77;;
6378;SDS011;3222;48.858;10.128;2023-04-24T07:38:29;2.40;;;2.20;;
6378;SDS011;3222;48.858;10.128;2023-04-24T07:40:55;4.57;;;2.10;;
6378;SDS011;3222;48.858;10.128;2023-04-24T07:43:21;2.63;;;2.00;;
6378;SDS011;3222;48.858;10.128;2023-04-24T07:45:48;2.73;;;2.40;;
6378;SDS011;3222;48.858;10.128;2023-04-24T07:48:14;2.43;;;2.27;;
6378;SDS011;3222;48.858;10.128;2023-04-24T07:50:41;3.30;;;2.30;;
6378;SDS011;3222;48.858;10.128;2023-04-24T07:53:07;2.30;;;2.10;;
6378;SDS011;3222;48.858;10.128;2023-04-24T07:55:33;2.70;;;2.50;;
6378;SDS011;3222;48.858;10.128;2023-04-24T07:57:58;3.00;;;2.70;;
6378;SDS011;3222;48.858;10.128;2023-04-24T08:00:24;4.17;;;2.33;;
6378;SDS011;3222;48.858;10.128;2023-04-24T08:02:50;2.40;;;2.30;;
6378;SDS011;3222;48.858;10.128;2023-04-24T08:05:16;2.40;;;2.20;;
6378;SDS011;3222;48.858;10.128;2023-04-24T08:07:41;2.50;;;2.30;;
6378;SDS011;3222;48.858;10.128;2023-04-24T08:10:09;2.63;;;2.43;;
6378;SDS011;3222;48.858;10.128;2023-04-24T08:12:35;2.70;;;2.50;;
6378;SDS011;3222;48.858;10.128;2023-04-24T08:15:01;2.60;;;2.30;;
6378;SDS011;3222;48.858;10.128;2023-04-24T08:17:27;2.90;;;2.70;;
6378;SDS011;3222;48.858;10.128;2023-04-24T08:19:53;3.13;;;2.63;;
6378;SDS011;3222;48.858;10.128;2023-04-24T08:22:26;3.03;;;2.43;;
6378;SDS011;3222;48.858;10.128;2023-04-24T08:24:52;2.60;;;2.40;;
6378;SDS011;3222;48.858;10.128;2023-04-24T08:27:18;2.37;;;2.17;;
6378;SDS011;3222;48.858;10.128;2023-04-24T08:29:44;3.30;;;2.43;;
6378;SDS011;3222;48.858;10.128;2023-04-24T08:32:09;3.00;;;2.70;;
6378;SDS011;3222;48.858;10.128;2023-04-24T08:34:35;3.07;;;2.77;;
6378;SDS011;3222;48.858;10.128;2023-04-24T08:37:01;2.97;;;2.50;;
6378;SDS011;3222;48.858;10.128;2023-04-24T08:39:27;8.23;;;4.87;;
6378;SDS011;3222;48.858;10.128;2023-04-24T08:41:54;9.47;;;5.37;;
6378;SDS011;3222;48.858;10.128;2023-04-24T08:44:20;13.63;;;7.23;;
6378;SDS011;3222;48.858;10.128;2023-04-24T08:46:47;15.83;;;7.47;;
6378;SDS011;3222;48.858;10.128;2023-04-24T08:49:14;14.53;;;7.37;;
6378;SDS011;3222;48.858;10.128;2023-04-24T08:51:43;11.77;;;8.03;;
6378;SDS011;3222;48.858;10.128;2023-04-24T08:54:11;3.70;;;2.70;;
6378;SDS011;3222;48.858;10.128;2023-04-24T08:56:37;3.27;;;2.70;;
6378;SDS011;3222;48.858;10.128;2023-04-24T08:59:05;3.30;;;3.00;;
6378;SDS011;3222;48.858;10.128;2023-04-24T09:01:32;2.93;;;2.70;;
6378;SDS011;3222;48.858;10.128;2023-04-24T09:04:00;2.97;;;2.67;;
6378;SDS011;3222;48.858;10.128;2023-04-24T09:06:29;2.30;;;2.10;;
6378;SDS011;3222;48.858;10.128;2023-04-24T09:08:58;3.27;;;2.60;;
6378;SDS011;3222;48.858;10.128;2023-04-24T09:11:25;2.70;;;2.50;;
6378;SDS011;3222;48.858;10.128;2023-04-24T09:13:52;4.77;;;2.70;;
6378;SDS011;3222;48.858;10.128;2023-04-24T09:16:20;3.27;;;2.87;;
6378;SDS011;3222;48.858;10.128;2023-04-24T09:18:48;4.00;;;2.93;;
6378;SDS011;3222;48.858;10.128;2023-04-24T09:21:13;3.50;;;3.20;;
6378;SDS011;3222;48.858;10.128;2023-04-24T09:23:40;5.50;;;3.50;;
6378;SDS011;3222;48.858;10.128;2023-04-24T09:26:06;8.73;;;2.90;;
6378;SDS011;3222;48.858;10.128;2023-04-24T09:28:35;2.77;;;2.53;;
6378;SDS011;3222;48.858;10.128;2023-04-24T09:31:13;2.57;;;2.37;;
6378;SDS011;3222;48.858;10.128;2023-04-24T09:34:04;3.07;;;2.20;;
6378;SDS011;3222;48.858;10.128;2023-04-24T09:36:33;2.17;;;2.07;;
6378;SDS011;3222;48.858;10.128;2023-04-24T09:38:59;2.33;;;2.13;;
6378;SDS011;3222;48.858;10.128;2023-04-24T09:41:26;2.20;;;2.00;;
6378;SDS011;3222;48.858;10.128;2023-04-24T09:43:53;3.57;;;2.30;;
6378;SDS011;3222;48.858;10.128;2023-04-24T09:46:20;2.70;;;2.50;;
6378;SDS011;3222;48.858;10.128;2023-04-24T09:48:50;3.23;;;2.57;;
6378;SDS011;3222;48.858;10.128;2023-04-24T09:51:15;2.83;;;2.63;;
6378;SDS011;3222;48.858;10.128;2023-04-24T09:53:45;2.90;;;2.70;;
6378;SDS011;3222;48.858;10.128;2023-04-24T09:56:13;3.93;;;2.50;;
6378;SDS011;3222;48.858;10.128;2023-04-24T09:58:39;2.70;;;2.50;;
6378;SDS011;3222;48.858;10.128;2023-04-24T10:01:05;2.63;;;2.43;;
6378;SDS011;3222;48.858;10.128;2023-04-24T10:03:31;2.10;;;2.00;;
6378;SDS011;3222;48.858;10.128;2023-04-24T10:06:02;2.30;;;2.10;;
6378;SDS011;3222;48.858;10.128;2023-04-24T10:08:34;4.60;;;2.30;;
6378;SDS011;3222;48.858;10.128;2023-04-24T10:11:00;2.30;;;2.10;;
6378;SDS011;3222;48.858;10.128;2023-04-24T10:13:26;2.67;;;2.17;;
6378;SDS011;3222;48.858;10.128;2023-04-24T10:15:53;2.37;;;2.10;;
6378;SDS011;3222;48.858;10.128;2023-04-24T10:18:19;5.80;;;2.23;;
6378;SDS011;3222;48.858;10.128;2023-04-24T10:20:46;3.77;;;2.20;;
6378;SDS011;3222;48.858;10.128;2023-04-24T10:23:12;3.77;;;2.10;;
6378;SDS011;3222;48.858;10.128;2023-04-24T10:25:37;2.13;;;2.00;;
6378;SDS011;3222;48.858;10.128;2023-04-24T10:28:03;2.17;;;1.87;;
6378;SDS011;3222;48.858;10.128;2023-04-24T10:30:30;2.00;;;1.90;;
6378;SDS011;3222;48.858;10.128;2023-04-24T10:33:03;3.83;;;1.80;;
6378;SDS011;3222;48.858;10.128;2023-04-24T10:35:32;2.10;;;2.00;;
6378;SDS011;3222;48.858;10.128;2023-04-24T10:38:06;2.07;;;1.97;;
6378;SDS011;3222;48.858;10.128;2023-04-24T10:40:36;2.13;;;1.93;;
6378;SDS011;3222;48.858;10.128;2023-04-24T10:43:02;1.80;;;1.70;;
6378;SDS011;3222;48.858;10.128;2023-04-24T10:45:33;2.13;;;2.00;;
6378;SDS011;3222;48.858;10.128;2023-04-24T10:47:59;1.73;;;1.63;;
6378;SDS011;3222;48.858;10.128;2023-04-24T10:50:28;2.10;;;2.00;;
6378;SDS011;3222;48.858;10.128;2023-04-24T10:53:07;3.20;;;2.20;;
6378;SDS011;3222;48.858;10.128;2023-04-24T10:55:41;3.40;;;2.40;;
6378;SDS011;3222;48.858;10.128;2023-04-24T10:58:08;4.20;;;3.03;;
6378;SDS011;3222;48.858;10.128;2023-04-24T11:00:36;2.80;;;2.40;;
6378;SDS011;3222;48.858;10.128;2023-04-24T11:05:56;4.10;;;2.73;;
6378;SDS011;3222;48.858;10.128;2023-04-24T11:11:03;2.50;;;2.10;;
6378;SDS011;3222;48.858;10.128;2023-04-24T11:16:28;2.07;;;1.90;;
6378;SDS011;3222;48.858;10.128;2023-04-24T11:21:43;1.80;;;1.70;;
6378;SDS011;3222;48.858;10.128;2023-04-24T11:29:39;2.17;;;1.93;;
6378;SDS011;3222;48.858;10.128;2023-04-24T11:34:55;3.27;;;2.20;;
6378;SDS011;3222;48.858;10.128;2023-04-24T11:37:23;2.80;;;2.60;;
6378;SDS011;3222;48.858;10.128;2023-04-24T11:39:53;2.27;;;2.10;;
6378;SDS011;3222;48.858;10.128;2023-04-24T11:42:20;2.63;;;2.03;;
6378;SDS011;3222;48.858;10.128;2023-04-24T11:44:47;2.17;;;1.93;;
6378;SDS011;3222;48.858;10.128;2023-04-24T11:47:14;2.20;;;1.60;;
6378;SDS011;3222;48.858;10.128;2023-04-24T11:49:40;2.03;;;1.93;;
6378;SDS011;3222;48.858;10.128;2023-04-24T11:52:06;2.50;;;1.50;;
6378;SDS011;3222;48.858;10.128;2023-04-24T11:54:32;2.73;;;1.80;;
6378;SDS011;3222;48.858;10.128;2023-04-24T11:56:58;2.50;;;1.50;;
6378;SDS011;3222;48.858;10.128;2023-04-24T11:59:23;2.13;;;1.50;;
6378;SDS011;3222;48.858;10.128;2023-04-24T12:01:49;1.90;;;1.80;;
6378;SDS011;3222;48.858;10.128;2023-04-24T12:04:16;3.37;;;1.97;;
6378;SDS011;3222;48.858;10.128;2023-04-24T12:06:59;1.83;;;1.73;;
6378;SDS011;3222;48.858;10.128;2023-04-24T12:09:26;5.77;;;1.87;;
6378;SDS011;3222;48.858;10.128;2023-04-24T12:11:55;1.80;;;1.70;;
6378;SDS011;3222;48.858;10.128;2023-04-24T12:14:24;1.90;;;1.80;;
6378;SDS011;3222;48.858;10.128;2023-04-24T12:16:50;1.90;;;1.80;;
6378;SDS011;3222;48.858;10.128;2023-04-24T12:19:22;1.73;;;1.60;;
6378;SDS011;3222;48.858;10.128;2023-04-24T12:22:05;1.70;;;1.60;;
6378;SDS011;3222;48.858;10.128;2023-04-24T12:24:31;1.93;;;1.83;;
6378;SDS011;3222;48.858;10.128;2023-04-24T12:26:57;1.63;;;1.53;;
6378;SDS011;3222;48.858;10.128;2023-04-24T12:29:23;2.20;;;2.00;;
6378;SDS011;3222;48.858;10.128;2023-04-24T12:31:50;2.03;;;1.90;;
6378;SDS011;3222;48.858;10.128;2023-04-24T12:34:23;2.20;;;2.10;;
6378;SDS011;3222;48.858;10.128;2023-04-24T12:36:50;1.90;;;1.80;;
6378;SDS011;3222;48.858;10.128;2023-04-24T12:39:17;1.90;;;1.80;;
6378;SDS011;3222;48.858;10.128;2023-04-24T12:41:54;2.03;;;1.83;;
6378;SDS011;3222;48.858;10.128;2023-04-24T12:44:29;2.10;;;1.90;;
6378;SDS011;3222;48.858;10.128;2023-04-24T12:46:59;3.57;;;1.90;;
6378;SDS011;3222;48.858;10.128;2023-04-24T12:49:26;2.13;;;1.93;;
6378;SDS011;3222;48.858;10.128;2023-04-24T12:51:52;2.70;;;2.23;;
6378;SDS011;3222;48.858;10.128;2023-04-24T12:54:18;4.53;;;2.50;;
6378;SDS011;3222;48.858;10.128;2023-04-24T12:56:44;2.17;;;1.90;;
6378;SDS011;3222;48.858;10.128;2023-04-24T12:59:10;4.20;;;1.80;;
6378;SDS011;3222;48.858;10.128;2023-04-24T13:01:35;2.87;;;1.77;;
6378;SDS011;3222;48.858;10.128;2023-04-24T13:04:01;3.03;;;1.90;;
6378;SDS011;3222;48.858;10.128;2023-04-24T13:06:27;2.37;;;1.80;;
6378;SDS011;3222;48.858;10.128;2023-04-24T13:08:53;2.10;;;1.67;;
6378;SDS011;3222;48.858;10.128;2023-04-24T13:11:20;1.77;;;1.63;;
6378;SDS011;3222;48.858;10.128;2023-04-24T13:13:47;3.10;;;2.13;;
6378;SDS011;3222;48.858;10.128;2023-04-24T13:16:12;3.20;;;2.40;;
6378;SDS011;3222;48.858;10.128;2023-04-24T13:18:38;3.53;;;2.23;;
6378;SDS011;3222;48.858;10.128;2023-04-24T13:21:04;4.00;;;1.90;;
6378;SDS011;3222;48.858;10.128;2023-04-24T13:23:30;3.30;;;1.90;;
6378;SDS011;3222;48.858;10.128;2023-04-24T13:25:55;3.03;;;2.20;;
6378;SDS011;3222;48.858;10.128;2023-04-24T13:28:26;2.60;;;2.40;;
6378;SDS011;3222;48.858;10.128;2023-04-24T13:30:52;3.20;;;2.50;;
6378;SDS011;3222;48.858;10.128;2023-04-24T13:33:18;2.87;;;2.53;;
6378;SDS011;3222;48.858;10.128;2023-04-24T13:35:43;2.30;;;2.10;;
6378;SDS011;3222;48.858;10.128;2023-04-24T13:38:09;2.23;;;2.13;;
6378;SDS011;3222;48.858;10.128;2023-04-24T13:40:35;1.97;;;1.80;;
6378;SDS011;3222;48.858;10.128;2023-04-24T13:43:01;2.40;;;2.20;;
6378;SDS011;3222;48.858;10.128;2023-04-24T13:45:27;2.00;;;1.90;;
6378;SDS011;3222;48.858;10.128;2023-04-24T13:47:53;1.80;;;1.70;;
6378;SDS011;3222;48.858;10.128;2023-04-24T13:50:19;1.90;;;1.80;;
6378;SDS011;3222;48.858;10.128;2023-04-24T13:52:45;2.23;;;2.03;;
6378;SDS011;3222;48.858;10.128;2023-04-24T13:55:11;3.87;;;2.30;;
6378;SDS011;3222;48.858;10.128;2023-04-24T13:57:36;3.63;;;3.33;;
6378;SDS011;3222;48.858;10.128;2023-04-24T14:00:02;6.23;;;3.10;;
6378;SDS011;3222;48.858;10.128;2023-04-24T14:02:32;3.13;;;2.70;;
6378;SDS011;3222;48.858;10.128;2023-04-24T14:04:58;2.97;;;2.47;;
6378;SDS011;3222;48.858;10.128;2023-04-24T14:07:23;4.03;;;3.20;;
6378;SDS011;3222;48.858;10.128;2023-04-24T14:09:49;3.97;;;2.80;;
6378;SDS011;3222;48.858;10.128;2023-04-24T14:12:15;3.83;;;3.17;;
6378;SDS011;3222;48.858;10.128;2023-04-24T14:14:44;3.23;;;2.87;;
6378;SDS011;3222;48.858;10.128;2023-04-24T14:17:10;3.70;;;2.90;;
6378;SDS011;3222;48.858;10.128;2023-04-24T14:19:36;2.80;;;2.60;;
6378;SDS011;3222;48.858;10.128;2023-04-24T14:22:02;3.80;;;2.57;;
6378;SDS011;3222;48.858;10.128;2023-04-24T14:24:27;4.87;;;3.00;;
6378;SDS011;3222;48.858;10.128;2023-04-24T14:26:53;4.23;;;3.10;;
6378;SDS011;3222;48.858;10.128;2023-04-24T14:29:19;4.97;;;3.33;;
6378;SDS011;3222;48.858;10.128;2023-04-24T14:31:44;4.40;;;3.10;;
6378;SDS011;3222;48.858;10.128;2023-04-24T14:34:10;3.80;;;2.40;;
6378;SDS011;3222;48.858;10.128;2023-04-24T14:36:36;2.83;;;2.50;;
6378;SDS011;3222;48.858;10.128;2023-04-24T14:39:02;3.27;;;2.67;;
6378;SDS011;3222;48.858;10.128;2023-04-24T14:41:31;3.87;;;2.67;;
6378;SDS011;3222;48.858;10.128;2023-04-24T14:44:01;3.87;;;3.07;;
6378;SDS011;3222;48.858;10.128;2023-04-24T14:46:28;3.93;;;3.07;;
6378;SDS011;3222;48.858;10.128;2023-04-24T14:48:55;4.10;;;3.30;;
6378;SDS011;3222;48.858;10.128;2023-04-24T14:51:21;2.00;;;1.90;;
6378;SDS011;3222;48.858;10.128;2023-04-24T14:53:47;4.67;;;2.40;;
6378;SDS011;3222;48.858;10.128;2023-04-24T14:56:13;3.30;;;1.80;;
6378;SDS011;3222;48.858;10.128;2023-04-24T14:58:39;1.80;;;1.70;;
6378;SDS011;3222;48.858;10.128;2023-04-24T15:01:05;1.87;;;1.77;;
6378;SDS011;3222;48.858;10.128;2023-04-24T15:03:30;3.50;;;2.17;;
6378;SDS011;3222;48.858;10.128;2023-04-24T15:05:56;1.80;;;1.70;;
6378;SDS011;3222;48.858;10.128;2023-04-24T15:08:22;1.90;;;1.80;;
6378;SDS011;3222;48.858;10.128;2023-04-24T15:10:47;2.20;;;2.00;;
6378;SDS011;3222;48.858;10.128;2023-04-24T15:13:13;3.13;;;1.90;;
6378;SDS011;3222;48.858;10.128;2023-04-24T15:15:39;2.00;;;1.90;;
6378;SDS011;3222;48.858;10.128;2023-04-24T15:18:05;2.00;;;1.90;;
6378;SDS011;3222;48.858;10.128;2023-04-24T15:20:33;1.90;;;1.80;;